Time;durP1;ratioP1;P1;durP2;ratioP2;P2;SDS_P1;SDS_P2;PMS_P1;PMS_P2;Temp;Humidity;BMP_temperature;BMP_pressure;BME280_temperature;BME280_humidity;BME280_pressure;Samples;Min_cycle;Max_cycle;Signal;HPM_P1;HPM_P2
2020/12/24 00:00:32;;;;;;;1.20;1.10;;;9.80;99.90;;;;;;4829241;29;20096;-82
2020/12/24 00:02:58;;;;;;;1.85;1.08;;;9.80;99.90;;;;;;4829611;29;20444;-81
2020/12/24 00:05:25;;;;;;;2.80;1.30;;;9.70;99.90;;;;;;4815278;29;20037;-82
2020/12/24 00:07:51;;;;;;;1.60;1.10;;;9.70;99.90;;;;;;4823198;29;20034;-80
2020/12/24 00:10:16;;;;;;;2.38;1.25;;;9.60;99.90;;;;;;4823778;29;20049;-80
2020/12/24 00:12:42;;;;;;;2.47;1.27;;;9.60;99.90;;;;;;4826213;29;20052;-81
2020/12/24 00:15:09;;;;;;;2.40;1.35;;;9.60;99.90;;;;;;4824410;29;20058;-81
2020/12/24 00:17:35;;;;;;;2.22;1.30;;;9.60;99.90;;;;;;4823073;29;20335;-82
2020/12/24 00:20:02;;;;;;;2.35;1.42;;;9.50;99.90;;;;;;4819094;29;20034;-83
2020/12/24 00:22:28;;;;;;;3.83;1.23;;;9.50;99.90;;;;;;4820875;29;20030;-81
2020/12/24 00:24:53;;;;;;;1.63;1.10;;;9.50;99.90;;;;;;4824562;29;20499;-82
2020/12/24 00:27:19;;;;;;;1.83;0.93;;;9.60;99.90;;;;;;4817562;29;20398;-81
2020/12/24 00:29:45;;;;;;;2.78;1.17;;;9.60;99.90;;;;;;4816889;29;20142;-80
2020/12/24 00:32:10;;;;;;;1.95;1.02;;;9.60;99.90;;;;;;4826941;29;20038;-81
2020/12/24 00:34:36;;;;;;;1.55;1.00;;;9.50;99.90;;;;;;4822348;29;20037;-81
2020/12/24 00:37:02;;;;;;;1.38;0.90;;;9.50;99.90;;;;;;4818134;29;20031;-80
2020/12/24 00:39:27;;;;;;;1.30;1.00;;;9.60;99.90;;;;;;4822597;29;20061;-81
2020/12/24 00:41:53;;;;;;;1.55;1.27;;;9.50;99.90;;;;;;4824854;29;20082;-81
2020/12/24 00:44:20;;;;;;;2.13;1.42;;;9.60;99.90;;;;;;4825503;29;20030;-82
2020/12/24 00:46:45;;;;;;;2.65;1.20;;;9.50;99.90;;;;;;4823589;29;20467;-80
2020/12/24 00:49:11;;;;;;;1.77;1.23;;;9.50;99.90;;;;;;4830704;29;20034;-82
2020/12/24 00:51:37;;;;;;;2.47;1.23;;;9.50;99.90;;;;;;4832909;29;20082;-82
2020/12/24 00:54:03;;;;;;;2.95;1.40;;;9.50;99.90;;;;;;4831110;29;20041;-81
2020/12/24 00:56:29;;;;;;;2.08;1.20;;;9.50;99.90;;;;;;4826575;29;20565;-81
2020/12/24 00:58:54;;;;;;;1.50;1.20;;;9.50;99.90;;;;;;4827757;29;20038;-81
2020/12/24 01:01:20;;;;;;;2.47;1.30;;;9.50;99.90;;;;;;4822523;29;20079;-82
2020/12/24 01:03:45;;;;;;;3.10;1.63;;;9.50;99.90;;;;;;4828545;29;20465;-82
2020/12/24 01:06:13;;;;;;;3.38;1.50;;;9.50;99.90;;;;;;4827167;29;20098;-82
2020/12/24 01:08:40;;;;;;;2.25;1.55;;;9.50;99.90;;;;;;4832031;29;20069;-82
2020/12/24 01:11:07;;;;;;;1.83;1.35;;;9.50;99.90;;;;;;4829080;29;20040;-82
2020/12/24 01:13:33;;;;;;;2.53;1.60;;;9.50;99.90;;;;;;4816454;29;20134;-81
2020/12/24 01:15:59;;;;;;;2.72;1.80;;;9.50;99.90;;;;;;4835208;29;20037;-81
2020/12/24 01:18:24;;;;;;;2.47;1.67;;;9.50;99.90;;;;;;4814926;29;20026;-83
2020/12/24 01:20:50;;;;;;;5.85;1.80;;;9.50;99.90;;;;;;4841263;29;20039;-81
2020/12/24 01:23:15;;;;;;;4.15;1.80;;;9.40;99.90;;;;;;4851251;29;20067;-82
2020/12/24 01:25:41;;;;;;;2.70;1.83;;;9.40;99.90;;;;;;4852095;29;20111;-81
2020/12/24 01:28:07;;;;;;;2.83;1.83;;;9.40;99.90;;;;;;4838080;29;20038;-83
2020/12/24 01:30:32;;;;;;;2.40;1.85;;;9.40;99.90;;;;;;4828777;29;20050;-81
2020/12/24 01:32:58;;;;;;;4.40;2.00;;;9.40;99.90;;;;;;4811176;29;20091;-82
2020/12/24 01:35:23;;;;;;;3.45;2.05;;;9.40;99.90;;;;;;4825099;29;20030;-82
2020/12/24 01:37:49;;;;;;;3.58;2.30;;;9.40;99.90;;;;;;4806626;29;20027;-82
2020/12/24 01:40:15;;;;;;;4.28;2.40;;;9.50;99.90;;;;;;4832013;29;20042;-82
2020/12/24 01:42:40;;;;;;;4.10;2.60;;;9.50;99.90;;;;;;4830218;29;20483;-81
2020/12/24 01:45:06;;;;;;;4.47;2.85;;;9.50;99.90;;;;;;4827629;29;20042;-80
2020/12/24 01:47:32;;;;;;;4.20;2.67;;;9.50;99.90;;;;;;4815434;29;20030;-80
2020/12/24 01:49:58;;;;;;;3.90;2.42;;;9.50;99.90;;;;;;4820038;29;20046;-82
2020/12/24 01:52:29;;;;;;;3.05;2.10;;;9.50;99.90;;;;;;4832988;29;20201;-81
2020/12/24 01:54:55;;;;;;;4.80;2.63;;;9.40;99.90;;;;;;4829460;29;20056;-81
2020/12/24 01:57:21;;;;;;;5.95;2.40;;;9.40;99.90;;;;;;4824901;29;20045;-79
2020/12/24 01:59:47;;;;;;;4.03;2.40;;;9.50;99.90;;;;;;4836650;29;20057;-82
2020/12/24 02:02:13;;;;;;;3.40;2.40;;;9.40;99.90;;;;;;4839315;29;20058;-79
2020/12/24 02:04:39;;;;;;;3.15;2.20;;;9.40;99.90;;;;;;4840033;29;20037;-80
2020/12/24 02:07:04;;;;;;;3.85;2.63;;;9.40;99.90;;;;;;4844582;29;20038;-81
2020/12/24 02:09:30;;;;;;;3.90;2.70;;;9.40;99.90;;;;;;4839778;29;20130;-82
2020/12/24 02:11:56;;;;;;;4.53;2.80;;;9.50;99.90;;;;;;4840294;29;20062;-82
2020/12/24 02:14:21;;;;;;;5.95;3.10;;;9.40;99.90;;;;;;4835474;29;20034;-82
2020/12/24 02:16:47;;;;;;;7.22;2.70;;;9.40;99.90;;;;;;4823596;29;20040;-82
2020/12/24 02:19:13;;;;;;;5.95;2.78;;;9.40;99.90;;;;;;4826067;29;20191;-82
2020/12/24 02:21:38;;;;;;;5.20;2.85;;;9.40;99.90;;;;;;4841065;29;20042;-81
2020/12/24 02:24:04;;;;;;;3.50;2.42;;;9.30;99.90;;;;;;4844387;29;20044;-80
2020/12/24 02:26:30;;;;;;;3.13;2.20;;;9.30;99.90;;;;;;4840465;29;20035;-82
2020/12/24 02:28:56;;;;;;;3.58;2.20;;;9.30;99.90;;;;;;4843256;29;20117;-82
2020/12/24 02:31:22;;;;;;;4.57;2.83;;;9.30;99.90;;;;;;4839769;29;20492;-83
2020/12/24 02:33:47;;;;;;;5.68;2.40;;;9.30;99.90;;;;;;4838463;29;20106;-82
2020/12/24 02:36:13;;;;;;;3.58;2.58;;;9.30;99.90;;;;;;4850137;29;20069;-82
2020/12/24 02:38:39;;;;;;;3.25;2.28;;;9.30;99.90;;;;;;4846939;29;20038;-81
2020/12/24 02:41:06;;;;;;;3.83;2.45;;;9.30;99.90;;;;;;4841884;29;20089;-81
2020/12/24 02:43:31;;;;;;;2.90;1.90;;;9.30;99.90;;;;;;4838653;29;20038;-80
2020/12/24 02:45:57;;;;;;;3.80;2.42;;;9.30;99.90;;;;;;4843618;29;20523;-79
2020/12/24 02:48:22;;;;;;;2.92;2.15;;;9.30;99.90;;;;;;4842354;29;20033;-81
2020/12/24 02:50:48;;;;;;;3.70;2.42;;;9.30;99.90;;;;;;4838615;29;20042;-81
2020/12/24 02:53:14;;;;;;;2.45;1.70;;;9.30;99.90;;;;;;4841701;29;20025;-82
2020/12/24 02:55:39;;;;;;;3.38;1.88;;;9.30;99.90;;;;;;4844416;29;20100;-82
2020/12/24 02:58:05;;;;;;;2.25;1.65;;;9.30;99.90;;;;;;4842565;29;20030;-81
2020/12/24 03:00:31;;;;;;;2.35;1.77;;;9.30;99.90;;;;;;4839237;29;20182;-80
2020/12/24 03:02:57;;;;;;;3.03;2.20;;;9.40;99.90;;;;;;4838739;29;20143;-80
2020/12/24 03:05:22;;;;;;;3.00;1.60;;;9.30;99.90;;;;;;4838257;29;20502;-80
2020/12/24 03:07:49;;;;;;;2.90;1.20;;;9.30;99.90;;;;;;4841296;29;20030;-80
2020/12/24 03:10:15;;;;;;;2.35;1.40;;;9.30;99.90;;;;;;4826951;29;20030;-79
2020/12/24 03:12:43;;;;;;;1.92;1.20;;;9.20;99.90;;;;;;4843256;29;20473;-79
2020/12/24 03:15:11;;;;;;;2.78;1.45;;;9.20;99.90;;;;;;4839665;29;20435;-80
2020/12/24 03:17:37;;;;;;;2.97;1.40;;;9.20;99.90;;;;;;4839968;29;20149;-79
2020/12/24 03:20:03;;;;;;;2.10;1.30;;;9.20;99.90;;;;;;4845872;29;20125;-79
2020/12/24 03:22:28;;;;;;;1.80;1.20;;;9.20;99.90;;;;;;4848187;29;20117;-78
2020/12/24 03:24:54;;;;;;;2.03;1.17;;;9.20;99.90;;;;;;4851412;29;20090;-80
2020/12/24 03:27:19;;;;;;;2.35;1.00;;;9.20;99.90;;;;;;4857176;29;20379;-81
2020/12/24 03:29:45;;;;;;;3.95;1.20;;;9.10;99.90;;;;;;4850812;29;20117;-81
2020/12/24 03:32:11;;;;;;;1.17;0.88;;;9.10;99.90;;;;;;4840683;29;20049;-81
2020/12/24 03:34:36;;;;;;;1.35;0.60;;;9.10;99.90;;;;;;4844154;29;20037;-80
2020/12/24 03:37:02;;;;;;;1.67;0.63;;;9.10;99.90;;;;;;4857188;29;20053;-80
2020/12/24 03:39:28;;;;;;;4.78;0.80;;;9.20;99.90;;;;;;4858180;29;20041;-80
2020/12/24 03:41:53;;;;;;;1.45;0.60;;;9.10;99.90;;;;;;4848734;29;20069;-79
2020/12/24 03:44:19;;;;;;;0.93;0.55;;;9.10;99.90;;;;;;4853648;29;20046;-79
2020/12/24 03:46:46;;;;;;;0.80;0.60;;;9.10;99.90;;;;;;4847397;29;20090;-80
2020/12/24 03:49:11;;;;;;;1.60;0.57;;;9.10;99.90;;;;;;4847699;29;20054;-81
2020/12/24 03:51:37;;;;;;;0.47;0.30;;;9.10;99.90;;;;;;4843709;29;20077;-79
2020/12/24 03:54:02;;;;;;;0.30;0.20;;;9.10;99.90;;;;;;4842605;29;20064;-80
2020/12/24 03:56:28;;;;;;;0.35;0.30;;;9.00;99.90;;;;;;4840951;29;20082;-81
2020/12/24 03:58:54;;;;;;;0.50;0.30;;;9.00;99.90;;;;;;4842237;29;20065;-81
2020/12/24 04:01:19;;;;;;;1.38;0.17;;;8.90;99.90;;;;;;4828569;29;20109;-81
2020/12/24 04:03:45;;;;;;;0.25;0.20;;;8.90;99.90;;;;;;4826377;29;20459;-79
2020/12/24 04:06:10;;;;;;;0.52;0.20;;;8.80;99.90;;;;;;4830416;29;20027;-80
2020/12/24 04:08:36;;;;;;;0.30;0.20;;;8.80;99.90;;;;;;4823032;29;20054;-80
2020/12/24 04:11:02;;;;;;;0.45;0.20;;;8.70;99.90;;;;;;4827221;29;20105;-81
2020/12/24 04:13:27;;;;;;;0.22;0.20;;;8.70;99.90;;;;;;4822258;29;20121;-79
2020/12/24 04:15:53;;;;;;;1.10;0.20;;;8.70;99.90;;;;;;4827529;29;20027;-79
2020/12/24 04:18:19;;;;;;;0.20;0.20;;;8.60;99.90;;;;;;4822086;29;20040;-81
2020/12/24 04:20:45;;;;;;;0.82;0.22;;;8.60;99.90;;;;;;4824336;29;20426;-79
2020/12/24 04:23:10;;;;;;;0.38;0.17;;;8.60;99.90;;;;;;4825600;29;20105;-79
2020/12/24 04:25:36;;;;;;;0.15;0.13;;;8.50;99.90;;;;;;4828460;29;20450;-80
2020/12/24 04:28:01;;;;;;;0.20;0.10;;;8.50;99.90;;;;;;4829087;29;20102;-80
2020/12/24 04:30:27;;;;;;;1.60;0.20;;;8.50;99.90;;;;;;4826805;29;20064;-78
2020/12/24 04:32:53;;;;;;;0.32;0.10;;;8.40;99.90;;;;;;4825918;29;20396;-80
2020/12/24 04:35:20;;;;;;;1.15;0.20;;;8.40;99.90;;;;;;4834618;29;20033;-81
2020/12/24 04:37:45;;;;;;;1.48;0.15;;;8.40;99.90;;;;;;4832144;29;20428;-81
2020/12/24 04:40:11;;;;;;;0.20;0.10;;;8.40;99.90;;;;;;4828849;29;20029;-81
2020/12/24 04:42:40;;;;;;;0.30;0.13;;;8.30;99.90;;;;;;4826391;29;20494;-79
2020/12/24 04:45:06;;;;;;;0.10;0.10;;;8.30;99.90;;;;;;4824919;29;20117;-80
2020/12/24 04:47:31;;;;;;;0.17;0.17;;;8.20;99.90;;;;;;4830411;29;20182;-80
2020/12/24 04:49:59;;;;;;;0.20;0.20;;;8.20;99.90;;;;;;4822143;29;20597;-81
2020/12/24 04:52:25;;;;;;;0.10;0.10;;;8.20;99.90;;;;;;4812850;29;20727;-82
2020/12/24 04:54:52;;;;;;;0.22;0.20;;;8.10;99.90;;;;;;4830798;29;20034;-80
2020/12/24 04:57:21;;;;;;;0.55;0.20;;;8.10;99.90;;;;;;4826777;29;20383;-81
2020/12/24 04:59:48;;;;;;;0.13;0.10;;;8.10;99.90;;;;;;4838368;29;20042;-81
2020/12/24 05:02:14;;;;;;;0.35;0.15;;;8.00;99.90;;;;;;4840821;29;20042;-81
2020/12/24 05:04:39;;;;;;;0.10;0.10;;;8.00;99.90;;;;;;4825422;29;20085;-82
2020/12/24 05:07:07;;;;;;;0.28;0.20;;;8.00;99.90;;;;;;4864229;29;20026;-80
2020/12/24 05:09:33;;;;;;;0.55;0.20;;;7.90;99.90;;;;;;4855057;29;20026;-81
2020/12/24 05:11:59;;;;;;;0.20;0.20;;;7.90;99.90;;;;;;4848254;29;20375;-79
2020/12/24 05:14:27;;;;;;;0.52;0.20;;;7.80;99.90;;;;;;4842352;29;20134;-79
2020/12/24 05:16:58;;;;;;;0.60;0.28;;;7.80;99.90;;;;;;4839870;29;20076;-79
2020/12/24 05:19:26;;;;;;;0.52;0.20;;;7.70;99.90;;;;;;4851923;29;20026;-79
2020/12/24 05:21:51;;;;;;;0.30;0.10;;;7.70;99.90;;;;;;4845580;29;20125;-80
2020/12/24 05:24:22;;;;;;;2.25;0.35;;;7.60;99.90;;;;;;4866040;29;20035;-80
2020/12/24 05:26:48;;;;;;;0.20;0.20;;;7.60;99.90;;;;;;4860469;29;20030;-81
2020/12/24 05:29:13;;;;;;;0.10;0.10;;;7.50;99.90;;;;;;4864246;29;20069;-80
2020/12/24 05:31:39;;;;;;;1.38;0.10;;;7.50;99.90;;;;;;4848096;29;20128;-81
2020/12/24 05:34:05;;;;;;;0.13;0.13;;;7.40;99.90;;;;;;4849829;29;20041;-81
2020/12/24 05:36:30;;;;;;;0.10;0.10;;;7.40;99.90;;;;;;4844264;29;20042;-79
2020/12/24 05:38:56;;;;;;;0.65;0.20;;;7.30;99.90;;;;;;4847173;29;20037;-78
2020/12/24 05:41:48;;;;;;;0.30;0.13;;;7.20;99.90;;;;;;4860816;29;20414;-80
2020/12/24 05:44:14;;;;;;;0.28;0.20;;;7.20;99.90;;;;;;4843940;29;20384;-80
2020/12/24 05:46:48;;;;;;;0.20;0.20;;;7.10;99.90;;;;;;4853167;29;20104;-80
2020/12/24 05:49:19;;;;;;;0.60;0.20;;;7.10;99.90;;;;;;4839911;29;20071;-79
2020/12/24 05:51:52;;;;;;;1.67;0.20;;;7.00;99.90;;;;;;4845551;29;20425;-81
2020/12/24 05:54:19;;;;;;;0.22;0.20;;;6.90;99.90;;;;;;4834294;29;20047;-81
2020/12/24 05:56:45;;;;;;;0.10;0.10;;;6.90;99.90;;;;;;4847421;29;20040;-81
2020/12/24 05:59:22;;;;;;;0.10;0.10;;;6.80;99.90;;;;;;4838127;29;20065;-80
2020/12/24 06:02:12;;;;;;;0.60;0.20;;;6.80;99.90;;;;;;4847355;29;20033;-81
2020/12/24 06:04:44;;;;;;;0.10;0.10;;;6.70;99.90;;;;;;4847598;29;20037;-80
2020/12/24 06:07:10;;;;;;;0.60;0.40;;;6.70;99.90;;;;;;4848790;29;20037;-80
2020/12/24 06:09:37;;;;;;;0.63;0.20;;;6.70;99.90;;;;;;4841609;29;20094;-81
2020/12/24 06:12:22;;;;;;;0.98;0.20;;;6.60;99.90;;;;;;4841060;29;20045;-82
2020/12/24 06:14:49;;;;;;;0.20;0.20;;;6.60;99.90;;;;;;4846018;29;20066;-81
2020/12/24 06:17:17;;;;;;;0.52;0.20;;;6.60;99.90;;;;;;4840477;29;20034;-81
2020/12/24 06:19:43;;;;;;;0.55;0.20;;;6.60;99.90;;;;;;4842649;29;20049;-81
2020/12/24 06:22:09;;;;;;;0.30;0.20;;;6.60;99.90;;;;;;4840343;29;20042;-82
2020/12/24 06:24:42;;;;;;;0.35;0.30;;;6.50;99.90;;;;;;4841004;29;20030;-81
2020/12/24 06:27:15;;;;;;;0.30;0.30;;;6.50;99.90;;;;;;4846320;29;20177;-80
2020/12/24 06:29:45;;;;;;;0.10;0.10;;;6.50;99.90;;;;;;4841441;29;20486;-80
2020/12/24 06:32:12;;;;;;;0.68;0.20;;;6.50;99.90;;;;;;4839478;29;20075;-80
2020/12/24 06:34:40;;;;;;;0.20;0.20;;;6.40;99.90;;;;;;4836502;29;20038;-80
2020/12/24 06:37:15;;;;;;;0.20;0.20;;;6.40;99.90;;;;;;4844328;29;20057;-81
2020/12/24 06:39:49;;;;;;;1.58;0.40;;;6.40;99.90;;;;;;4846779;29;20436;-81
2020/12/24 06:42:37;;;;;;;1.25;0.32;;;6.40;99.90;;;;;;4840068;29;20045;-83
2020/12/24 06:45:09;;;;;;;1.63;0.30;;;6.40;99.90;;;;;;4820550;29;20514;-80
2020/12/24 06:47:36;;;;;;;0.65;0.17;;;6.30;99.90;;;;;;4816553;29;20039;-81
2020/12/24 06:50:40;;;;;;;2.45;0.32;;;6.30;99.90;;;;;;4810387;29;20046;-80
2020/12/24 06:53:27;;;;;;;1.35;0.40;;;6.30;99.90;;;;;;4799628;29;20767;-80
2020/12/24 06:56:13;;;;;;;0.38;0.30;;;6.30;99.90;;;;;;4800314;29;20050;-81
2020/12/24 06:59:03;;;;;;;0.63;0.30;;;6.30;99.90;;;;;;4797644;29;20979;-80
2020/12/24 07:01:35;;;;;;;0.47;0.28;;;6.30;99.90;;;;;;4798447;29;20070;-80
2020/12/24 07:04:03;;;;;;;0.35;0.22;;;6.30;99.90;;;;;;4805611;29;20066;-80
2020/12/24 07:06:41;;;;;;;3.08;0.47;;;6.30;99.90;;;;;;4799876;29;20261;-80
2020/12/24 07:09:08;;;;;;;2.08;0.50;;;6.30;99.90;;;;;;4797994;29;20046;-80
2020/12/24 07:11:52;;;;;;;1.20;0.40;;;6.20;99.90;;;;;;4802779;29;20430;-80
2020/12/24 07:14:37;;;;;;;0.40;0.30;;;6.20;99.90;;;;;;4802105;29;20034;-81
2020/12/24 07:17:18;;;;;;;2.95;0.50;;;6.20;99.90;;;;;;4800752;29;20043;-81
2020/12/24 07:19:46;;;;;;;0.75;0.35;;;6.20;99.90;;;;;;4800336;29;20042;-81
2020/12/24 07:22:19;;;;;;;1.55;0.40;;;6.20;99.90;;;;;;4825884;29;20508;-82
2020/12/24 07:24:57;;;;;;;0.52;0.30;;;6.20;99.90;;;;;;4856787;29;20049;-80
2020/12/24 07:27:24;;;;;;;1.48;0.57;;;6.20;99.90;;;;;;4861341;29;20033;-79
2020/12/24 07:29:49;;;;;;;1.95;0.43;;;6.20;99.90;;;;;;4859321;29;20034;-81
2020/12/24 07:32:18;;;;;;;1.77;0.40;;;6.20;99.90;;;;;;4839205;29;20049;-80
2020/12/24 07:34:45;;;;;;;1.10;0.40;;;6.20;99.90;;;;;;4855682;29;20141;-79
2020/12/24 07:37:12;;;;;;;0.28;0.28;;;6.20;99.90;;;;;;4850686;29;20029;-80
2020/12/24 07:39:38;;;;;;;0.88;0.40;;;6.30;99.90;;;;;;4842556;29;20387;-81
2020/12/24 07:42:04;;;;;;;0.93;0.30;;;6.30;99.90;;;;;;4862223;29;20036;-80
2020/12/24 07:44:29;;;;;;;1.83;0.40;;;6.30;99.90;;;;;;4856038;29;20026;-81
2020/12/24 07:47:03;;;;;;;1.17;0.22;;;6.30;99.90;;;;;;4853369;29;20486;-80
2020/12/24 07:49:29;;;;;;;0.60;0.30;;;6.20;99.90;;;;;;4859031;29;20033;-78
2020/12/24 07:51:56;;;;;;;2.05;0.55;;;6.30;99.90;;;;;;4846342;29;20038;-79
2020/12/24 07:54:27;;;;;;;1.48;0.30;;;6.30;99.90;;;;;;4842117;29;20152;-81
2020/12/24 07:56:53;;;;;;;0.82;0.30;;;6.30;99.90;;;;;;4841155;29;20029;-80
2020/12/24 07:59:20;;;;;;;2.80;0.50;;;6.30;99.90;;;;;;4832188;29;20054;-79
2020/12/24 08:01:46;;;;;;;1.13;0.50;;;6.30;99.90;;;;;;4821460;29;20026;-82
2020/12/24 08:04:12;;;;;;;1.67;0.50;;;6.30;99.90;;;;;;4820917;29;20086;-79
2020/12/24 08:06:38;;;;;;;2.33;0.43;;;6.30;99.90;;;;;;4825898;29;20018;-80
2020/12/24 08:09:15;;;;;;;0.55;0.40;;;6.30;99.90;;;;;;4818301;29;20035;-79
2020/12/24 08:11:50;;;;;;;1.60;0.50;;;6.30;99.90;;;;;;4822512;29;20623;-87
2020/12/24 08:14:19;;;;;;;3.15;0.55;;;6.30;99.90;;;;;;4813932;29;20505;-89
2020/12/24 08:16:45;;;;;;;0.45;0.20;;;6.30;99.90;;;;;;4809141;29;20031;-75
2020/12/24 08:19:25;;;;;;;2.28;0.30;;;6.40;99.90;;;;;;4826635;29;20051;-77
2020/12/24 08:22:21;;;;;;;1.67;0.47;;;6.30;99.90;;;;;;4824751;29;20027;-75
2020/12/24 08:24:47;;;;;;;1.75;0.32;;;6.30;99.90;;;;;;4760458;30;20119;-76
2020/12/24 08:27:13;;;;;;;2.53;0.47;;;6.40;99.90;;;;;;4770752;30;20046;-75
2020/12/24 08:29:39;;;;;;;3.00;0.70;;;6.40;99.90;;;;;;4768873;30;20064;-76
2020/12/24 08:32:06;;;;;;;3.42;0.60;;;6.40;99.90;;;;;;4778934;30;20371;-76
2020/12/24 08:34:32;;;;;;;2.60;0.50;;;6.40;99.90;;;;;;4770135;30;20071;-76
2020/12/24 08:36:57;;;;;;;1.95;0.38;;;6.40;99.90;;;;;;4771467;30;20126;-79
2020/12/24 08:39:23;;;;;;;1.95;0.60;;;6.40;99.90;;;;;;4772567;30;20567;-76
2020/12/24 08:41:56;;;;;;;1.08;0.40;;;6.40;99.90;;;;;;4775746;30;20039;-77
2020/12/24 08:44:22;;;;;;;0.43;0.30;;;6.50;99.90;;;;;;4770145;30;20516;-78
2020/12/24 08:47:03;;;;;;;0.90;0.50;;;6.50;99.90;;;;;;4771732;30;20076;-77
2020/12/24 08:49:29;;;;;;;0.98;0.35;;;6.60;99.90;;;;;;4769025;30;20488;-78
2020/12/24 08:52:18;;;;;;;3.90;0.40;;;6.60;99.90;;;;;;4770749;30;20107;-76
2020/12/24 08:55:01;;;;;;;0.65;0.30;;;6.60;99.90;;;;;;4765989;30;20047;-78
2020/12/24 08:57:27;;;;;;;1.13;0.38;;;6.70;99.90;;;;;;4771039;30;20069;-76
2020/12/24 08:59:57;;;;;;;0.98;0.40;;;6.80;99.90;;;;;;4775291;30;20055;-77
2020/12/24 09:02:27;;;;;;;1.75;0.60;;;6.80;99.90;;;;;;4825432;29;20042;-76
2020/12/24 09:04:54;;;;;;;1.20;0.45;;;6.80;99.90;;;;;;4829888;29;20026;-77
2020/12/24 09:07:31;;;;;;;0.30;0.20;;;6.80;99.90;;;;;;4829987;29;20399;-76
2020/12/24 09:10:05;;;;;;;1.50;0.32;;;6.80;99.90;;;;;;4825934;29;20071;-76
2020/12/24 09:12:31;;;;;;;0.88;0.30;;;6.80;99.90;;;;;;4829847;29;20083;-77
2020/12/24 09:15:02;;;;;;;0.35;0.30;;;6.80;99.90;;;;;;4826033;29;20030;-77
2020/12/24 09:17:28;;;;;;;0.28;0.22;;;6.80;99.90;;;;;;4811044;29;20049;-81
2020/12/24 09:20:14;;;;;;;1.23;0.35;;;6.80;99.90;;;;;;4828772;29;20035;-77
2020/12/24 09:22:54;;;;;;;0.57;0.47;;;6.80;99.90;;;;;;4830590;29;20102;-78
2020/12/24 09:25:34;;;;;;;0.40;0.30;;;6.70;99.90;;;;;;4824740;29;20042;-76
2020/12/24 09:28:00;;;;;;;1.85;0.40;;;6.70;99.90;;;;;;4828968;29;20041;-75
2020/12/24 09:30:27;;;;;;;2.15;0.40;;;6.70;99.90;;;;;;4826047;29;20048;-76
2020/12/24 09:32:57;;;;;;;3.50;0.40;;;6.70;99.90;;;;;;4830798;29;20033;-76
2020/12/24 09:35:24;;;;;;;0.70;0.40;;;6.70;99.90;;;;;;4831102;29;20038;-77
2020/12/24 09:37:51;;;;;;;0.50;0.40;;;6.80;99.90;;;;;;4821056;29;20069;-77
2020/12/24 09:40:17;;;;;;;0.90;0.38;;;6.80;99.90;;;;;;4820761;29;20091;-76
2020/12/24 09:42:43;;;;;;;0.40;0.30;;;6.80;99.90;;;;;;4821764;29;20086;-77
2020/12/24 09:45:09;;;;;;;3.25;0.50;;;6.80;99.90;;;;;;4821362;29;20043;-74
2020/12/24 09:47:35;;;;;;;0.80;0.30;;;6.80;99.90;;;;;;4820169;29;20543;-76
2020/12/24 09:50:01;;;;;;;1.27;0.40;;;6.80;99.90;;;;;;4830339;29;20574;-76
2020/12/24 09:52:27;;;;;;;1.27;0.47;;;6.90;99.90;;;;;;4822030;29;20087;-75
2020/12/24 09:54:52;;;;;;;1.50;0.40;;;6.90;99.90;;;;;;4822068;29;20023;-76
2020/12/24 09:57:18;;;;;;;0.50;0.28;;;6.90;99.90;;;;;;4823958;29;20109;-76
2020/12/24 09:59:44;;;;;;;1.17;0.40;;;6.90;99.90;;;;;;4823601;29;20069;-76
2020/12/24 10:02:09;;;;;;;1.67;0.52;;;7.00;99.90;;;;;;4818391;29;20050;-75
2020/12/24 10:04:35;;;;;;;1.65;0.32;;;7.00;99.90;;;;;;4822450;29;20502;-79
2020/12/24 10:07:00;;;;;;;0.82;0.20;;;7.10;99.90;;;;;;4828988;29;20483;-77
2020/12/24 10:09:26;;;;;;;1.20;0.30;;;7.10;99.90;;;;;;4820562;29;20506;-77
2020/12/24 10:11:51;;;;;;;2.05;0.50;;;7.10;99.90;;;;;;4816493;29;20054;-76
2020/12/24 10:14:17;;;;;;;0.80;0.30;;;7.10;99.90;;;;;;4822206;29;20119;-75
2020/12/24 10:16:43;;;;;;;2.78;0.57;;;7.20;99.90;;;;;;4823428;29;20505;-73
2020/12/24 10:19:09;;;;;;;1.65;0.40;;;7.30;99.90;;;;;;4818968;29;20406;-78
2020/12/24 10:21:34;;;;;;;0.73;0.50;;;7.30;99.90;;;;;;4828985;29;20042;-76
2020/12/24 10:24:00;;;;;;;0.50;0.47;;;7.40;99.90;;;;;;4821607;29;20498;-74
2020/12/24 10:26:25;;;;;;;2.15;0.60;;;7.40;99.90;;;;;;4824496;29;20042;-76
2020/12/24 10:28:51;;;;;;;0.50;0.40;;;7.40;99.90;;;;;;4819178;29;20030;-79
2020/12/24 10:31:16;;;;;;;1.02;0.50;;;7.50;99.90;;;;;;4818944;29;20061;-76
2020/12/24 10:33:42;;;;;;;1.52;0.57;;;7.50;99.90;;;;;;4819521;29;20071;-76
2020/12/24 10:36:08;;;;;;;1.05;0.50;;;7.60;99.90;;;;;;4838209;29;20483;-75
2020/12/24 10:38:36;;;;;;;0.80;0.30;;;7.70;99.90;;;;;;4830014;29;20045;-75
2020/12/24 10:41:01;;;;;;;0.30;0.30;;;7.90;99.90;;;;;;4822773;29;20191;-74
2020/12/24 10:43:28;;;;;;;0.57;0.40;;;7.90;99.90;;;;;;4816604;29;20117;-75
2020/12/24 10:45:53;;;;;;;1.67;0.50;;;8.00;99.90;;;;;;4828802;29;20042;-74
2020/12/24 10:48:19;;;;;;;2.13;0.70;;;8.10;99.90;;;;;;4825002;29;20034;-74
2020/12/24 10:50:44;;;;;;;1.58;0.50;;;8.10;99.90;;;;;;4819810;29;20372;-75
2020/12/24 10:53:10;;;;;;;2.58;0.65;;;8.10;99.90;;;;;;4827146;29;20074;-73
2020/12/24 10:55:37;;;;;;;1.45;0.40;;;8.00;99.90;;;;;;4829897;29;20041;-76
2020/12/24 10:58:02;;;;;;;1.38;0.45;;;8.00;99.90;;;;;;4823824;29;20026;-74
2020/12/24 11:00:28;;;;;;;2.33;0.50;;;8.00;99.90;;;;;;4835948;29;20054;-74
2020/12/24 11:02:54;;;;;;;2.90;0.50;;;8.10;99.90;;;;;;4838326;29;20061;-76
2020/12/24 11:05:19;;;;;;;0.68;0.40;;;8.30;99.90;;;;;;4843368;29;20112;-75
2020/12/24 11:07:45;;;;;;;0.60;0.40;;;8.30;99.90;;;;;;4843507;29;20137;-75
2020/12/24 11:10:10;;;;;;;1.75;0.32;;;8.30;99.90;;;;;;4840335;29;20021;-74
2020/12/24 11:12:36;;;;;;;0.82;0.50;;;8.40;99.90;;;;;;4838953;29;20038;-75
2020/12/24 11:15:01;;;;;;;2.42;0.50;;;8.60;99.90;;;;;;4839051;29;20034;-74
2020/12/24 11:17:27;;;;;;;3.40;0.68;;;8.70;99.90;;;;;;4839660;29;20054;-74
2020/12/24 11:19:53;;;;;;;3.00;0.50;;;8.80;99.90;;;;;;4820606;29;20124;-74
2020/12/24 11:22:18;;;;;;;4.13;0.68;;;8.90;99.90;;;;;;4837677;29;20550;-74
2020/12/24 11:24:44;;;;;;;1.58;0.35;;;9.10;99.90;;;;;;4844524;29;20514;-75
2020/12/24 11:27:09;;;;;;;3.60;0.40;;;9.20;99.90;;;;;;4844173;29;20052;-74
2020/12/24 11:29:35;;;;;;;1.00;0.40;;;9.30;99.90;;;;;;4840253;29;20087;-75
2020/12/24 11:32:01;;;;;;;3.35;0.70;;;9.40;99.90;;;;;;4837797;29;20058;-75
2020/12/24 11:34:28;;;;;;;0.77;0.20;;;9.60;99.90;;;;;;4836622;29;20490;-75
2020/12/24 11:36:55;;;;;;;2.67;0.30;;;9.60;99.90;;;;;;4837602;29;20085;-75
2020/12/24 11:39:21;;;;;;;0.52;0.30;;;9.60;99.90;;;;;;4838333;29;20092;-73
2020/12/24 11:41:47;;;;;;;1.38;0.60;;;9.70;99.90;;;;;;4836539;29;20041;-74
2020/12/24 11:44:12;;;;;;;2.30;0.43;;;9.70;99.90;;;;;;4835518;29;20394;-75
2020/12/24 11:46:38;;;;;;;0.90;0.57;;;9.50;99.90;;;;;;4838833;29;20061;-74
2020/12/24 11:49:03;;;;;;;1.90;0.43;;;9.40;99.90;;;;;;4836473;29;20661;-75
2020/12/24 11:51:30;;;;;;;1.45;0.40;;;9.30;99.90;;;;;;4839324;29;20102;-74
2020/12/24 11:53:55;;;;;;;2.88;0.50;;;9.30;99.90;;;;;;4839631;29;20132;-75
2020/12/24 11:56:22;;;;;;;0.52;0.30;;;9.30;99.90;;;;;;4841425;29;20074;-75
2020/12/24 11:58:49;;;;;;;1.48;0.40;;;9.30;99.90;;;;;;4843541;29;20085;-74
2020/12/24 12:01:17;;;;;;;1.00;0.20;;;9.20;99.90;;;;;;4842931;29;20038;-75
2020/12/24 12:03:43;;;;;;;1.30;0.20;;;9.30;99.90;;;;;;4845293;29;20089;-76
2020/12/24 12:06:09;;;;;;;0.22;0.20;;;9.30;99.90;;;;;;4844831;29;20235;-75
2020/12/24 12:08:35;;;;;;;0.63;0.30;;;9.50;99.90;;;;;;4838225;29;20041;-76
2020/12/24 12:11:04;;;;;;;2.95;0.50;;;9.70;99.90;;;;;;4838694;29;20050;-76
2020/12/24 12:13:30;;;;;;;1.30;0.30;;;9.90;99.90;;;;;;4843517;29;20038;-75
2020/12/24 12:15:56;;;;;;;2.58;0.50;;;10.00;99.90;;;;;;4818142;29;20034;-75
2020/12/24 12:18:26;;;;;;;1.50;0.60;;;10.00;99.90;;;;;;4844906;29;20018;-76
2020/12/24 12:20:52;;;;;;;0.70;0.45;;;9.90;99.90;;;;;;4840988;29;20095;-76
2020/12/24 12:23:18;;;;;;;0.85;0.35;;;9.80;99.90;;;;;;4836432;29;20113;-74
2020/12/24 12:25:44;;;;;;;0.68;0.40;;;9.70;99.90;;;;;;4839001;29;20030;-76
2020/12/24 12:28:09;;;;;;;1.52;0.52;;;9.60;99.90;;;;;;4839526;29;20038;-74
2020/12/24 12:30:35;;;;;;;0.88;0.30;;;9.60;99.90;;;;;;4837516;29;20485;-76
2020/12/24 12:33:03;;;;;;;4.47;0.40;;;9.50;99.90;;;;;;4838142;29;20109;-74
2020/12/24 12:35:29;;;;;;;3.95;0.35;;;9.50;99.90;;;;;;4839735;29;20041;-75
2020/12/24 12:37:54;;;;;;;1.42;0.52;;;9.40;99.90;;;;;;4836699;29;20042;-75
2020/12/24 12:40:20;;;;;;;1.08;0.47;;;9.40;99.90;;;;;;4834600;29;20041;-74
2020/12/24 12:42:46;;;;;;;0.30;0.20;;;9.30;99.90;;;;;;4837713;29;20030;-78
2020/12/24 12:45:11;;;;;;;1.27;0.30;;;9.30;99.90;;;;;;4837749;29;20568;-76
2020/12/24 12:47:38;;;;;;;1.10;0.35;;;9.20;99.90;;;;;;4836165;29;20033;-76
2020/12/24 12:50:07;;;;;;;1.45;0.40;;;9.20;99.90;;;;;;4817408;29;20054;-75
2020/12/24 12:52:33;;;;;;;1.15;0.45;;;9.10;99.90;;;;;;4834760;29;20050;-74
2020/12/24 12:54:59;;;;;;;1.75;0.50;;;9.10;99.90;;;;;;4830254;29;20026;-76
2020/12/24 12:57:25;;;;;;;0.65;0.40;;;9.10;99.90;;;;;;4827708;29;20105;-76
2020/12/24 12:59:50;;;;;;;1.10;0.40;;;9.00;99.90;;;;;;4835236;29;20053;-76